Time;durP1;ratioP1;P1;durP2;ratioP2;P2;SDS_P1;SDS_P2;PMS_P1;PMS_P2;Temp;Humidity;BMP_temperature;BMP_pressure;BME280_temperature;BME280_humidity;BME280_pressure;Samples;Min_cycle;Max_cycle;Signal;HPM_P1;HPM_P2
2023/12/29 00:02:11;;;;;;;5.05;2.75;;;;;;;;;;5012852;28;20069;-69
2023/12/29 00:04:37;;;;;;;3.42;2.38;;;;;;;;;;5012476;28;20057;-69
2023/12/29 00:07:02;;;;;;;4.22;2.60;;;;;;;;;;5012757;28;20077;-69
2023/12/29 00:09:28;;;;;;;6.10;2.60;;;;;;;;;;5030543;28;20522;-69
2023/12/29 00:11:56;;;;;;;3.85;2.80;;;;;;;;;;5031122;28;20030;-70
2023/12/29 00:14:22;;;;;;;9.23;3.28;;;;;;;;;;5030968;28;20148;-69
2023/12/29 00:16:47;;;;;;;4.75;2.17;;;;;;;;;;4996260;28;20045;-69
2023/12/29 00:19:13;;;;;;;5.80;2.65;;;;;;;;;;5030436;28;20029;-69
2023/12/29 00:21:39;;;;;;;4.13;2.70;;;;;;;;;;5029908;28;20025;-69
2023/12/29 00:24:06;;;;;;;6.32;1.98;;;;;;;;;;5012426;28;20055;-70
2023/12/29 00:26:33;;;;;;;7.35;2.42;;;;;;;;;;5030044;28;20389;-68
2023/12/29 00:28:58;;;;;;;6.00;3.00;;;;;;;;;;5029076;28;20030;-68
2023/12/29 00:31:24;;;;;;;5.05;2.47;;;;;;;;;;5028849;28;20036;-69
2023/12/29 00:33:51;;;;;;;4.20;2.85;;;;;;;;;;5028470;28;20405;-71
2023/12/29 00:36:18;;;;;;;6.45;2.75;;;;;;;;;;5030140;28;20064;-69
2023/12/29 00:38:44;;;;;;;3.58;2.58;;;;;;;;;;5027594;28;20025;-69
2023/12/29 00:41:10;;;;;;;2.53;1.90;;;;;;;;;;5028776;28;20037;-69
2023/12/29 00:43:35;;;;;;;4.75;2.78;;;;;;;;;;5029417;28;20079;-69
2023/12/29 00:46:03;;;;;;;3.78;2.53;;;;;;;;;;5030008;28;20036;-69
2023/12/29 00:48:29;;;;;;;3.92;2.47;;;;;;;;;;5029854;28;20025;-70
2023/12/29 00:50:55;;;;;;;4.30;2.55;;;;;;;;;;5029808;28;20029;-70
2023/12/29 00:53:20;;;;;;;6.72;3.03;;;;;;;;;;5025357;28;20504;-68
2023/12/29 00:55:47;;;;;;;3.47;2.40;;;;;;;;;;5029225;28;20040;-69
2023/12/29 00:58:14;;;;;;;3.70;2.40;;;;;;;;;;5031171;28;20148;-70
2023/12/29 01:00:40;;;;;;;4.45;2.42;;;;;;;;;;5014283;28;20342;-69
2023/12/29 01:03:05;;;;;;;3.55;2.35;;;;;;;;;;5031202;28;20036;-69
2023/12/29 01:05:32;;;;;;;4.03;2.65;;;;;;;;;;5029563;28;20468;-70
2023/12/29 01:07:57;;;;;;;6.03;2.55;;;;;;;;;;5029564;28;20390;-69
2023/12/29 01:10:23;;;;;;;6.28;2.25;;;;;;;;;;5028263;28;20033;-70
2023/12/29 01:12:48;;;;;;;4.40;2.60;;;;;;;;;;5027904;28;20091;-69
2023/12/29 01:15:14;;;;;;;4.13;2.30;;;;;;;;;;5029222;28;20110;-69
2023/12/29 01:17:40;;;;;;;3.60;2.30;;;;;;;;;;5027771;28;20409;-69
2023/12/29 01:20:06;;;;;;;3.17;2.00;;;;;;;;;;5029145;28;20068;-70
2023/12/29 01:22:31;;;;;;;3.13;2.67;;;;;;;;;;5011543;28;20030;-70
2023/12/29 01:25:00;;;;;;;3.40;2.33;;;;;;;;;;5029761;28;20037;-69
2023/12/29 01:27:26;;;;;;;3.60;2.35;;;;;;;;;;5011747;28;20037;-69
2023/12/29 01:29:52;;;;;;;3.05;1.90;;;;;;;;;;5029720;28;20192;-69
2023/12/29 01:32:18;;;;;;;5.35;2.40;;;;;;;;;;5012213;28;20021;-69
2023/12/29 01:34:45;;;;;;;3.83;2.17;;;;;;;;;;5010983;28;20436;-69
2023/12/29 01:37:10;;;;;;;2.83;2.20;;;;;;;;;;5028798;28;20030;-71
2023/12/29 01:39:36;;;;;;;3.13;1.90;;;;;;;;;;5027564;28;20116;-71
2023/12/29 01:42:02;;;;;;;5.22;2.17;;;;;;;;;;5028018;28;20025;-69
2023/12/29 01:44:27;;;;;;;4.10;2.28;;;;;;;;;;5028848;28;20100;-69
2023/12/29 01:46:56;;;;;;;4.35;2.25;;;;;;;;;;5027481;28;20367;-69
2023/12/29 01:49:22;;;;;;;3.17;2.08;;;;;;;;;;5024594;28;20033;-70
2023/12/29 01:51:50;;;;;;;4.43;2.50;;;;;;;;;;4994627;28;20393;-69
2023/12/29 01:54:18;;;;;;;2.95;2.10;;;;;;;;;;5011014;28;20036;-68
2023/12/29 01:56:44;;;;;;;2.58;1.92;;;;;;;;;;5011296;28;20416;-69
2023/12/29 01:59:10;;;;;;;3.88;2.10;;;;;;;;;;5028750;28;20034;-69
2023/12/29 02:01:39;;;;;;;2.10;1.83;;;;;;;;;;5028592;28;20386;-69
2023/12/29 02:04:06;;;;;;;2.78;2.00;;;;;;;;;;5018904;28;20413;-67
2023/12/29 02:06:35;;;;;;;2.50;1.92;;;;;;;;;;5028891;28;20363;-72
2023/12/29 02:09:03;;;;;;;3.92;1.92;;;;;;;;;;5027686;28;20691;-68
2023/12/29 02:11:29;;;;;;;2.08;1.70;;;;;;;;;;5027425;28;20488;-69
2023/12/29 02:13:55;;;;;;;3.15;1.80;;;;;;;;;;5028693;28;20025;-70
2023/12/29 02:16:41;;;;;;;3.75;2.05;;;;;;;;;;5029138;28;20040;-70
2023/12/29 02:19:46;;;;;;;3.65;2.08;;;;;;;;;;5025210;28;20045;-67
2023/12/29 02:22:12;;;;;;;4.07;2.10;;;;;;;;;;5030015;28;20041;-68
2023/12/29 02:24:38;;;;;;;3.25;2.00;;;;;;;;;;5030520;28;20398;-69
2023/12/29 02:27:37;;;;;;;2.60;2.22;;;;;;;;;;5032565;28;20025;-68
2023/12/29 02:30:09;;;;;;;3.03;2.22;;;;;;;;;;5031127;28;20040;-70
2023/12/29 02:32:38;;;;;;;2.72;1.83;;;;;;;;;;5017491;28;20086;-69
2023/12/29 02:35:07;;;;;;;5.18;2.10;;;;;;;;;;5015267;28;20037;-69
2023/12/29 02:37:35;;;;;;;2.25;1.95;;;;;;;;;;5019639;28;20125;-70
2023/12/29 02:40:01;;;;;;;3.00;1.95;;;;;;;;;;5032370;28;20030;-68
2023/12/29 02:42:27;;;;;;;3.70;2.10;;;;;;;;;;5030930;28;20120;-69
2023/12/29 02:44:52;;;;;;;3.13;2.20;;;;;;;;;;5031811;28;20105;-68
2023/12/29 02:47:19;;;;;;;3.28;2.25;;;;;;;;;;5032187;28;20473;-69
2023/12/29 02:49:45;;;;;;;4.28;2.25;;;;;;;;;;5031605;28;20032;-69
2023/12/29 02:52:11;;;;;;;2.90;1.92;;;;;;;;;;5031895;28;20026;-70
2023/12/29 02:54:38;;;;;;;3.08;1.98;;;;;;;;;;5030259;28;20056;-69
2023/12/29 02:57:04;;;;;;;2.63;2.08;;;;;;;;;;5030587;28;20029;-69
2023/12/29 02:59:30;;;;;;;6.40;2.28;;;;;;;;;;5031372;28;20032;-69
2023/12/29 03:01:55;;;;;;;3.42;2.20;;;;;;;;;;5031673;28;20021;-70
2023/12/29 03:04:20;;;;;;;3.95;2.30;;;;;;;;;;5031699;28;20048;-69
2023/12/29 03:06:46;;;;;;;3.80;2.00;;;;;;;;;;5013748;28;20106;-68
2023/12/29 03:09:11;;;;;;;2.50;2.28;;;;;;;;;;5013989;28;20039;-68
2023/12/29 03:11:37;;;;;;;2.83;2.05;;;;;;;;;;5032829;28;20509;-70
2023/12/29 03:14:03;;;;;;;3.40;1.98;;;;;;;;;;5031669;28;20453;-69
2023/12/29 03:16:29;;;;;;;2.78;2.00;;;;;;;;;;5031679;28;20036;-69
2023/12/29 03:18:54;;;;;;;2.38;2.17;;;;;;;;;;5013650;28;20087;-69
2023/12/29 03:21:20;;;;;;;4.63;2.40;;;;;;;;;;5014153;28;20033;-68
2023/12/29 03:23:46;;;;;;;3.65;2.13;;;;;;;;;;5013869;28;20028;-70
2023/12/29 03:26:12;;;;;;;4.55;1.95;;;;;;;;;;5013580;28;20108;-68
2023/12/29 03:28:38;;;;;;;2.92;2.40;;;;;;;;;;5025828;28;20060;-71
2023/12/29 03:31:06;;;;;;;2.83;1.50;;;;;;;;;;5031708;28;20033;-69
2023/12/29 03:33:32;;;;;;;3.75;2.15;;;;;;;;;;5031784;28;20033;-68
2023/12/29 03:35:57;;;;;;;3.03;2.10;;;;;;;;;;5029766;28;20029;-71
2023/12/29 03:38:23;;;;;;;3.88;2.10;;;;;;;;;;5030191;28;20373;-68
2023/12/29 03:40:48;;;;;;;2.47;1.73;;;;;;;;;;5029436;28;20075;-68
2023/12/29 03:43:14;;;;;;;3.60;1.70;;;;;;;;;;5030520;28;20038;-69
2023/12/29 03:45:39;;;;;;;2.65;1.65;;;;;;;;;;5013158;28;20421;-69
2023/12/29 03:48:05;;;;;;;3.15;1.85;;;;;;;;;;5031011;28;20544;-69
2023/12/29 03:50:31;;;;;;;3.22;1.90;;;;;;;;;;5013015;28;20480;-68
2023/12/29 03:52:56;;;;;;;2.47;2.22;;;;;;;;;;5030719;28;20341;-70
2023/12/29 03:55:21;;;;;;;2.45;1.70;;;;;;;;;;5030630;28;20621;-70
2023/12/29 03:57:47;;;;;;;2.17;1.77;;;;;;;;;;5029525;28;20033;-67
2023/12/29 04:00:14;;;;;;;2.15;1.77;;;;;;;;;;5029286;28;20033;-67
2023/12/29 04:02:40;;;;;;;3.22;1.88;;;;;;;;;;5029467;28;20035;-71
2023/12/29 04:05:07;;;;;;;2.75;1.95;;;;;;;;;;5029160;28;20494;-68
2023/12/29 04:07:34;;;;;;;2.63;1.30;;;;;;;;;;5029351;28;20021;-69
2023/12/29 04:10:00;;;;;;;2.25;1.58;;;;;;;;;;5027131;28;20128;-68
2023/12/29 04:12:25;;;;;;;1.67;1.52;;;;;;;;;;5030546;28;20709;-70
2023/12/29 04:14:51;;;;;;;2.38;1.95;;;;;;;;;;5012705;28;20029;-70
2023/12/29 04:17:16;;;;;;;2.38;1.80;;;;;;;;;;5030671;28;20033;-69
2023/12/29 04:19:42;;;;;;;2.75;2.20;;;;;;;;;;5012462;28;20053;-69
2023/12/29 04:22:08;;;;;;;5.03;2.13;;;;;;;;;;4996383;28;20048;-72
2023/12/29 04:24:34;;;;;;;2.20;1.67;;;;;;;;;;5012867;28;20033;-68
2023/12/29 04:27:00;;;;;;;7.03;2.13;;;;;;;;;;4995804;28;20033;-69
2023/12/29 04:29:25;;;;;;;3.65;1.90;;;;;;;;;;5030323;28;20381;-69
2023/12/29 04:31:51;;;;;;;4.18;2.00;;;;;;;;;;5029879;28;20034;-69
2023/12/29 04:34:17;;;;;;;3.55;1.75;;;;;;;;;;5030069;28;20029;-69
2023/12/29 04:36:42;;;;;;;2.70;1.60;;;;;;;;;;5029637;28;20174;-69
2023/12/29 04:39:11;;;;;;;2.25;1.85;;;;;;;;;;5029316;28;20174;-69
2023/12/29 04:41:36;;;;;;;3.90;1.85;;;;;;;;;;5029559;28;20152;-70
2023/12/29 04:44:02;;;;;;;3.30;1.40;;;;;;;;;;5029718;28;20120;-69
2023/12/29 04:46:30;;;;;;;2.10;1.90;;;;;;;;;;5028695;28;20135;-69
2023/12/29 04:48:56;;;;;;;3.45;1.70;;;;;;;;;;5028345;28;20025;-70
2023/12/29 04:51:21;;;;;;;1.77;1.42;;;;;;;;;;5030203;28;20033;-69
2023/12/29 04:53:46;;;;;;;5.93;1.73;;;;;;;;;;5012334;28;20470;-72
2023/12/29 04:56:12;;;;;;;2.13;1.50;;;;;;;;;;5029609;28;20100;-68
2023/12/29 04:58:38;;;;;;;2.63;1.30;;;;;;;;;;5029869;28;20044;-67
2023/12/29 05:01:03;;;;;;;3.55;1.63;;;;;;;;;;5029366;28;20025;-68
2023/12/29 05:03:29;;;;;;;2.00;1.40;;;;;;;;;;5012217;28;20083;-68
2023/12/29 05:05:54;;;;;;;2.17;1.42;;;;;;;;;;5029490;28;20037;-69
2023/12/29 05:08:20;;;;;;;2.90;1.42;;;;;;;;;;5029769;28;20079;-69
2023/12/29 05:10:45;;;;;;;3.20;1.63;;;;;;;;;;5029557;28;20378;-68
2023/12/29 05:13:11;;;;;;;1.65;1.25;;;;;;;;;;5031713;28;20029;-69
2023/12/29 05:15:36;;;;;;;1.52;1.40;;;;;;;;;;5031184;28;20111;-70
2023/12/29 05:18:02;;;;;;;1.52;1.25;;;;;;;;;;5030617;28;20460;-68
2023/12/29 05:20:28;;;;;;;2.85;1.80;;;;;;;;;;5027504;28;20029;-70
2023/12/29 05:22:53;;;;;;;4.07;1.45;;;;;;;;;;5029102;28;20355;-68
2023/12/29 05:25:21;;;;;;;2.53;1.75;;;;;;;;;;5029575;28;20034;-70
2023/12/29 05:27:47;;;;;;;1.08;1.00;;;;;;;;;;5029218;28;20029;-70
2023/12/29 05:30:13;;;;;;;3.10;1.77;;;;;;;;;;5027783;28;20061;-69
2023/12/29 05:32:39;;;;;;;4.30;1.75;;;;;;;;;;5028153;28;20453;-68
2023/12/29 05:35:05;;;;;;;1.25;1.00;;;;;;;;;;5028501;28;20052;-69
2023/12/29 05:37:30;;;;;;;2.00;1.50;;;;;;;;;;5011165;28;20029;-70
2023/12/29 05:39:56;;;;;;;1.25;1.13;;;;;;;;;;5011090;28;20030;-71
2023/12/29 05:42:21;;;;;;;3.42;1.50;;;;;;;;;;5011159;28;20037;-67
2023/12/29 05:44:47;;;;;;;1.88;1.60;;;;;;;;;;5011155;28;20064;-69
2023/12/29 05:47:12;;;;;;;1.52;1.30;;;;;;;;;;5011223;28;20112;-69
2023/12/29 05:49:39;;;;;;;1.48;1.35;;;;;;;;;;5027713;28;20112;-69
2023/12/29 05:52:08;;;;;;;1.70;1.50;;;;;;;;;;5029360;28;20071;-69
2023/12/29 05:54:34;;;;;;;1.92;1.30;;;;;;;;;;5033318;28;20703;-68
2023/12/29 05:57:00;;;;;;;2.15;1.40;;;;;;;;;;5032031;28;20033;-69
2023/12/29 05:59:25;;;;;;;1.80;1.52;;;;;;;;;;5031502;28;20536;-68
2023/12/29 06:01:51;;;;;;;3.15;1.70;;;;;;;;;;5032791;28;20025;-70
2023/12/29 06:04:16;;;;;;;2.00;1.50;;;;;;;;;;5015002;28;20428;-68
2023/12/29 06:06:42;;;;;;;2.03;1.30;;;;;;;;;;5032997;28;20466;-70
2023/12/29 06:09:11;;;;;;;5.80;1.80;;;;;;;;;;5032837;28;20033;-69
2023/12/29 06:11:36;;;;;;;1.60;1.38;;;;;;;;;;5032721;28;20120;-69
2023/12/29 06:14:02;;;;;;;2.97;1.70;;;;;;;;;;5032729;28;20601;-68
2023/12/29 06:16:29;;;;;;;1.40;1.27;;;;;;;;;;5032872;28;20107;-69
2023/12/29 06:18:55;;;;;;;1.83;1.42;;;;;;;;;;5031273;28;20117;-69
2023/12/29 06:21:21;;;;;;;1.58;1.45;;;;;;;;;;5031238;28;20116;-69
2023/12/29 06:23:46;;;;;;;2.17;1.70;;;;;;;;;;5031419;28;20075;-69
2023/12/29 06:26:16;;;;;;;3.03;1.58;;;;;;;;;;5032362;28;20041;-68
2023/12/29 06:28:42;;;;;;;2.30;1.95;;;;;;;;;;5032564;28;20142;-68
2023/12/29 06:31:08;;;;;;;1.52;1.42;;;;;;;;;;5032658;28;20393;-70
2023/12/29 06:33:33;;;;;;;4.45;1.48;;;;;;;;;;5032657;28;20104;-70
2023/12/29 06:36:02;;;;;;;4.88;1.55;;;;;;;;;;5031588;28;20116;-70
2023/12/29 06:38:28;;;;;;;2.28;1.50;;;;;;;;;;5031412;28;20052;-70
2023/12/29 06:40:53;;;;;;;1.85;1.20;;;;;;;;;;5031426;28;20461;-69
2023/12/29 06:43:19;;;;;;;3.97;1.83;;;;;;;;;;5033781;28;20025;-68
2023/12/29 06:45:44;;;;;;;1.73;1.40;;;;;;;;;;5015985;28;20022;-69
2023/12/29 06:48:11;;;;;;;2.53;1.58;;;;;;;;;;5033610;28;20033;-68
2023/12/29 06:50:36;;;;;;;4.55;1.52;;;;;;;;;;5033214;28;20021;-67
2023/12/29 06:53:03;;;;;;;3.25;1.13;;;;;;;;;;5014249;28;20531;-70
2023/12/29 06:55:28;;;;;;;1.33;1.23;;;;;;;;;;5014513;28;20025;-71
2023/12/29 06:57:54;;;;;;;2.90;2.00;;;;;;;;;;5014252;28;20056;-70
2023/12/29 07:00:19;;;;;;;4.07;2.08;;;;;;;;;;5032245;28;20033;-68
2023/12/29 07:02:45;;;;;;;2.60;1.40;;;;;;;;;;5031530;28;20029;-70
2023/12/29 07:05:13;;;;;;;4.18;2.08;;;;;;;;;;5045120;28;20132;-69
2023/12/29 07:07:39;;;;;;;3.17;1.65;;;;;;;;;;5034074;28;20029;-70
2023/12/29 07:10:06;;;;;;;1.88;1.50;;;;;;;;;;5033914;28;20389;-70
2023/12/29 07:12:31;;;;;;;6.82;2.10;;;;;;;;;;5043134;28;20769;-70
2023/12/29 07:14:57;;;;;;;2.65;1.90;;;;;;;;;;5032078;28;20119;-69
2023/12/29 07:17:22;;;;;;;1.75;1.52;;;;;;;;;;5032008;28;20112;-68
2023/12/29 07:19:49;;;;;;;4.30;1.77;;;;;;;;;;5031912;28;20119;-70
2023/12/29 07:22:16;;;;;;;6.50;2.25;;;;;;;;;;5013622;28;20025;-70
2023/12/29 07:24:42;;;;;;;3.10;1.88;;;;;;;;;;5031809;28;20079;-69
2023/12/29 07:27:07;;;;;;;2.20;1.55;;;;;;;;;;5045974;28;20480;-71
2023/12/29 07:29:34;;;;;;;2.75;1.42;;;;;;;;;;5050145;28;20052;-69
2023/12/29 07:32:00;;;;;;;3.13;1.83;;;;;;;;;;5051132;28;20404;-69
2023/12/29 07:34:26;;;;;;;1.58;1.48;;;;;;;;;;5051561;28;20104;-68
2023/12/29 07:36:54;;;;;;;2.50;1.73;;;;;;;;;;5051367;28;20119;-70
2023/12/29 07:39:20;;;;;;;1.80;1.70;;;;;;;;;;5016790;28;20418;-69
2023/12/29 07:41:46;;;;;;;3.25;1.70;;;;;;;;;;5031384;28;20067;-71
2023/12/29 07:44:12;;;;;;;3.58;1.92;;;;;;;;;;5031244;28;20375;-68
2023/12/29 07:46:40;;;;;;;2.47;1.60;;;;;;;;;;5013541;28;20482;-69
2023/12/29 07:49:05;;;;;;;3.22;2.00;;;;;;;;;;5031648;28;20100;-70
2023/12/29 07:51:32;;;;;;;1.73;1.63;;;;;;;;;;5031423;28;20110;-70
2023/12/29 07:53:57;;;;;;;4.45;2.03;;;;;;;;;;5016746;28;20040;-70
2023/12/29 07:56:23;;;;;;;3.38;1.73;;;;;;;;;;5033204;28;20456;-69
2023/12/29 07:58:48;;;;;;;2.65;1.55;;;;;;;;;;5051546;28;20021;-70
2023/12/29 08:01:14;;;;;;;5.35;2.17;;;;;;;;;;5051105;28;20032;-69
2023/12/29 08:03:39;;;;;;;2.95;1.55;;;;;;;;;;5050806;28;20029;-68
2023/12/29 08:06:05;;;;;;;2.65;2.00;;;;;;;;;;5049270;28;20029;-69
2023/12/29 08:08:31;;;;;;;4.15;2.70;;;;;;;;;;5051304;28;20225;-70
2023/12/29 08:10:56;;;;;;;3.35;2.13;;;;;;;;;;5036865;28;20040;-70
2023/12/29 08:13:22;;;;;;;4.53;2.22;;;;;;;;;;5031394;28;20033;-71
2023/12/29 08:15:47;;;;;;;3.55;2.38;;;;;;;;;;5012545;28;20133;-70
2023/12/29 08:18:13;;;;;;;3.13;2.05;;;;;;;;;;5019118;28;20036;-69
2023/12/29 08:20:38;;;;;;;2.85;1.90;;;;;;;;;;5011929;28;20128;-70
2023/12/29 08:23:04;;;;;;;5.95;1.83;;;;;;;;;;5035901;28;20033;-73
2023/12/29 08:25:29;;;;;;;2.80;1.80;;;;;;;;;;5046184;28;20446;-70
2023/12/29 08:27:58;;;;;;;2.80;1.88;;;;;;;;;;5038833;28;20028;-71
2023/12/29 08:30:24;;;;;;;2.38;1.70;;;;;;;;;;5039980;28;20120;-69
2023/12/29 08:32:49;;;;;;;2.33;1.80;;;;;;;;;;5038946;28;20587;-70
2023/12/29 08:35:15;;;;;;;1.95;1.33;;;;;;;;;;5019073;28;20044;-72
2023/12/29 08:37:41;;;;;;;2.15;1.67;;;;;;;;;;5037879;28;20033;-71
2023/12/29 08:40:08;;;;;;;3.67;2.10;;;;;;;;;;5011301;28;20037;-71
2023/12/29 08:42:33;;;;;;;3.40;1.75;;;;;;;;;;5029106;28;20554;-70
2023/12/29 08:44:59;;;;;;;2.90;1.67;;;;;;;;;;5011166;28;20033;-72
2023/12/29 08:47:25;;;;;;;2.88;1.80;;;;;;;;;;5029547;28;20100;-70
2023/12/29 08:49:51;;;;;;;3.17;2.00;;;;;;;;;;5021126;28;20024;-71
2023/12/29 08:52:16;;;;;;;5.55;1.92;;;;;;;;;;5048334;28;20384;-72
2023/12/29 08:54:42;;;;;;;2.22;1.83;;;;;;;;;;5030616;28;20021;-69
2023/12/29 08:57:07;;;;;;;2.28;1.45;;;;;;;;;;5048599;28;20028;-71
2023/12/29 08:59:33;;;;;;;2.33;2.05;;;;;;;;;;5048651;28;20040;-70
2023/12/29 09:02:00;;;;;;;6.00;2.17;;;;;;;;;;5047283;28;20591;-71
2023/12/29 09:04:25;;;;;;;2.97;1.73;;;;;;;;;;5030805;28;20079;-69
2023/12/29 09:06:53;;;;;;;7.00;2.25;;;;;;;;;;5048456;28;20041;-71
2023/12/29 09:09:20;;;;;;;2.00;1.65;;;;;;;;;;5048317;28;20075;-70
2023/12/29 09:11:47;;;;;;;3.50;1.92;;;;;;;;;;5048721;28;20166;-70
2023/12/29 09:14:13;;;;;;;1.67;1.50;;;;;;;;;;5048545;28;20052;-70
2023/12/29 09:16:40;;;;;;;4.45;2.28;;;;;;;;;;5032764;28;20056;-71
2023/12/29 09:19:05;;;;;;;5.13;1.77;;;;;;;;;;5028572;28;20109;-73
2023/12/29 09:21:31;;;;;;;3.25;2.10;;;;;;;;;;5012043;28;20466;-70
2023/12/29 09:23:58;;;;;;;4.70;2.75;;;;;;;;;;5028690;28;20485;-72
2023/12/29 09:26:24;;;;;;;3.33;2.15;;;;;;;;;;5015579;28;20033;-72
2023/12/29 09:28:49;;;;;;;2.92;2.00;;;;;;;;;;5029820;28;20397;-72
2023/12/29 09:31:15;;;;;;;2.97;2.03;;;;;;;;;;5021533;28;20397;-71
2023/12/29 09:33:41;;;;;;;2.85;1.50;;;;;;;;;;5029829;28;20473;-72
2023/12/29 09:36:06;;;;;;;1.92;1.52;;;;;;;;;;5016916;28;20057;-72
2023/12/29 09:38:33;;;;;;;3.85;1.58;;;;;;;;;;5010870;28;20481;-68
2023/12/29 09:41:04;;;;;;;1.38;1.27;;;;;;;;;;5009574;28;20030;-71
2023/12/29 09:43:32;;;;;;;2.78;1.65;;;;;;;;;;4994866;28;20464;-71
2023/12/29 09:45:59;;;;;;;2.92;1.33;;;;;;;;;;5010726;28;20042;-71
2023/12/29 09:48:27;;;;;;;3.13;1.50;;;;;;;;;;5028935;28;20021;-69
2023/12/29 09:50:53;;;;;;;2.40;1.70;;;;;;;;;;5028046;28;20036;-71
2023/12/29 09:53:21;;;;;;;7.10;1.88;;;;;;;;;;5010176;28;20776;-71
2023/12/29 09:55:49;;;;;;;1.98;1.27;;;;;;;;;;5027789;28;20063;-71
2023/12/29 09:58:18;;;;;;;2.10;1.45;;;;;;;;;;5010269;28;20029;-70
2023/12/29 10:00:46;;;;;;;2.03;1.73;;;;;;;;;;5005101;28;20033;-69
2023/12/29 10:03:12;;;;;;;3.58;1.70;;;;;;;;;;5011058;28;20270;-72
2023/12/29 10:05:39;;;;;;;5.18;1.83;;;;;;;;;;5036749;28;20627;-71
2023/12/29 10:08:08;;;;;;;4.88;1.42;;;;;;;;;;5028910;28;20068;-70
2023/12/29 10:10:35;;;;;;;3.05;1.70;;;;;;;;;;4999335;28;20057;-69
2023/12/29 10:13:03;;;;;;;3.03;1.33;;;;;;;;;;5046503;28;20435;-69
2023/12/29 10:15:45;;;;;;;3.65;2.00;;;;;;;;;;5039862;28;20036;-72
2023/12/29 10:18:18;;;;;;;2.55;1.55;;;;;;;;;;5029295;28;20154;-70
2023/12/29 10:21:02;;;;;;;1.88;1.48;;;;;;;;;;5045963;28;20037;-71
2023/12/29 10:24:02;;;;;;;3.00;1.40;;;;;;;;;;5034537;28;20049;-71
2023/12/29 10:26:29;;;;;;;3.35;2.20;;;;;;;;;;5032307;28;20272;-70
2023/12/29 10:28:55;;;;;;;2.53;1.52;;;;;;;;;;5038826;28;20361;-70
2023/12/29 10:31:23;;;;;;;2.25;1.95;;;;;;;;;;5021595;28;20515;-72
2023/12/29 10:33:51;;;;;;;2.90;1.60;;;;;;;;;;5013120;28;20048;-70
2023/12/29 10:36:16;;;;;;;2.17;1.40;;;;;;;;;;5016904;28;20416;-71
2023/12/29 10:38:43;;;;;;;1.58;1.40;;;;;;;;;;5036051;28;20017;-70
2023/12/29 10:41:13;;;;;;;4.05;1.35;;;;;;;;;;5035886;28;20033;-70
2023/12/29 10:43:44;;;;;;;4.07;1.40;;;;;;;;;;5019002;28;20040;-71
2023/12/29 10:46:11;;;;;;;2.00;1.55;;;;;;;;;;5047582;28;20037;-71
2023/12/29 10:48:37;;;;;;;1.90;1.20;;;;;;;;;;5038009;28;20013;-71
2023/12/29 10:51:04;;;;;;;2.10;1.40;;;;;;;;;;5050898;28;20032;-70
2023/12/29 10:53:34;;;;;;;4.13;1.77;;;;;;;;;;5036893;28;20076;-71
2023/12/29 10:56:00;;;;;;;2.55;1.20;;;;;;;;;;5022125;28;20029;-70
2023/12/29 10:58:29;;;;;;;1.63;1.13;;;;;;;;;;5046749;28;20021;-71
2023/12/29 11:00:57;;;;;;;2.22;1.60;;;;;;;;;;5014206;28;20033;-71
2023/12/29 11:03:23;;;;;;;2.20;1.20;;;;;;;;;;5028029;28;20036;-71
2023/12/29 11:05:58;;;;;;;3.08;1.30;;;;;;;;;;5035810;28;20077;-69
2023/12/29 11:08:24;;;;;;;1.17;1.05;;;;;;;;;;5028691;28;20025;-71
2023/12/29 11:10:50;;;;;;;1.38;1.25;;;;;;;;;;5020898;28;20037;-70
2023/12/29 11:13:15;;;;;;;1.40;1.02;;;;;;;;;;5020768;28;20038;-69
2023/12/29 11:15:44;;;;;;;1.92;1.45;;;;;;;;;;5028338;28;20029;-71
2023/12/29 11:18:15;;;;;;;1.58;1.17;;;;;;;;;;5015804;28;20116;-70
2023/12/29 11:20:42;;;;;;;1.98;1.10;;;;;;;;;;5025453;28;20064;-69
2023/12/29 11:23:09;;;;;;;1.60;1.45;;;;;;;;;;5020565;28;20029;-70
2023/12/29 11:25:35;;;;;;;1.80;1.15;;;;;;;;;;5044938;28;20087;-73
2023/12/29 11:28:01;;;;;;;2.08;1.30;;;;;;;;;;5016004;28;20022;-70
2023/12/29 11:30:27;;;;;;;2.05;1.00;;;;;;;;;;5047105;28;20021;-69
2023/12/29 11:33:04;;;;;;;1.52;1.17;;;;;;;;;;5023838;28;20382;-70
2023/12/29 11:35:57;;;;;;;1.33;1.13;;;;;;;;;;5026473;28;20476;-70
2023/12/29 11:38:29;;;;;;;1.23;1.10;;;;;;;;;;5009577;28;20068;-70
2023/12/29 11:41:18;;;;;;;1.30;1.08;;;;;;;;;;5021869;28;20033;-71
2023/12/29 11:43:43;;;;;;;1.17;1.00;;;;;;;;;;5012986;28;20156;-69
2023/12/29 11:46:46;;;;;;;2.22;1.15;;;;;;;;;;5012589;28;20152;-73
2023/12/29 11:49:13;;;;;;;1.92;1.00;;;;;;;;;;5041159;28;20036;-69
2023/12/29 11:51:48;;;;;;;1.42;1.05;;;;;;;;;;5014444;28;20466;-72
2023/12/29 11:54:26;;;;;;;2.08;1.25;;;;;;;;;;5036995;28;20098;-72
2023/12/29 11:56:55;;;;;;;1.48;1.02;;;;;;;;;;5001477;28;20041;-70
2023/12/29 11:59:23;;;;;;;2.65;1.30;;;;;;;;;;5029863;28;20504;-70
2023/12/29 12:01:57;;;;;;;1.73;1.17;;;;;;;;;;5035448;28;20402;-72
2023/12/29 12:04:43;;;;;;;2.08;1.50;;;;;;;;;;5014831;28;20045;-72
2023/12/29 12:07:23;;;;;;;1.80;1.23;;;;;;;;;;5002184;28;20269;-71
2023/12/29 12:09:50;;;;;;;2.78;1.40;;;;;;;;;;5028660;28;20115;-71
2023/12/29 12:12:39;;;;;;;2.85;1.20;;;;;;;;;;5046120;28;20036;-69
2023/12/29 12:15:32;;;;;;;1.55;1.35;;;;;;;;;;5021910;28;20017;-70
2023/12/29 12:18:11;;;;;;;1.20;1.08;;;;;;;;;;5013307;28;20129;-73
2023/12/29 12:20:38;;;;;;;2.30;1.52;;;;;;;;;;5029935;28;20067;-69
2023/12/29 12:23:24;;;;;;;1.63;1.10;;;;;;;;;;5039377;28;20031;-71
2023/12/29 12:25:57;;;;;;;1.73;1.10;;;;;;;;;;5047725;28;20032;-70
2023/12/29 12:28:23;;;;;;;1.25;1.15;;;;;;;;;;5049111;28;20017;-71
2023/12/29 12:30:48;;;;;;;2.28;1.38;;;;;;;;;;5041064;28;20029;-71
2023/12/29 12:33:14;;;;;;;2.95;1.38;;;;;;;;;;5018897;28;20045;-71
2023/12/29 12:35:44;;;;;;;1.75;1.17;;;;;;;;;;5014997;28;20118;-71
2023/12/29 12:38:12;;;;;;;6.80;1.50;;;;;;;;;;4997535;28;20136;-71
2023/12/29 12:40:38;;;;;;;2.25;1.27;;;;;;;;;;5032179;28;20456;-69
2023/12/29 12:43:06;;;;;;;1.80;1.20;;;;;;;;;;5020982;28;20473;-68
2023/12/29 12:45:41;;;;;;;2.33;1.25;;;;;;;;;;5029318;28;20029;-71
2023/12/29 12:48:35;;;;;;;3.85;1.08;;;;;;;;;;5015225;28;20444;-70
2023/12/29 12:51:03;;;;;;;1.10;1.00;;;;;;;;;;5026194;28;20110;-71
2023/12/29 12:53:29;;;;;;;0.90;0.90;;;;;;;;;;5016169;28;20128;-72
2023/12/29 12:55:55;;;;;;;1.50;1.05;;;;;;;;;;4994830;28;20083;-71
2023/12/29 12:58:21;;;;;;;1.40;1.10;;;;;;;;;;5030473;28;20021;-70
2023/12/29 13:00:48;;;;;;;1.33;1.08;;;;;;;;;;5027072;28;20029;-70
2023/12/29 13:03:15;;;;;;;1.13;0.88;;;;;;;;;;5028562;28;20496;-70
2023/12/29 13:05:41;;;;;;;1.10;1.00;;;;;;;;;;5046227;28;20037;-70
2023/12/29 13:08:08;;;;;;;1.75;1.20;;;;;;;;;;5048824;28;20480;-69
2023/12/29 13:10:40;;;;;;;1.55;1.45;;;;;;;;;;5049035;28;20029;-69
2023/12/29 13:13:05;;;;;;;2.40;1.30;;;;;;;;;;5030813;28;20029;-69
2023/12/29 13:15:31;;;;;;;1.75;1.20;;;;;;;;;;5024070;28;20102;-71
2023/12/29 13:17:58;;;;;;;1.25;0.88;;;;;;;;;;5027684;28;20065;-70
2023/12/29 13:20:24;;;;;;;0.98;0.80;;;;;;;;;;5029250;28;20388;-72
2023/12/29 13:22:51;;;;;;;1.50;1.10;;;;;;;;;;5029466;28;20037;-70
2023/12/29 13:25:27;;;;;;;1.85;1.35;;;;;;;;;;5028817;28;20033;-70
2023/12/29 13:27:54;;;;;;;1.40;1.05;;;;;;;;;;5011234;28;20040;-72
2023/12/29 13:30:20;;;;;;;3.22;1.20;;;;;;;;;;5042554;28;20043;-71
2023/12/29 13:32:49;;;;;;;2.28;1.13;;;;;;;;;;5049142;28;20036;-72
2023/12/29 13:35:37;;;;;;;1.15;0.90;;;;;;;;;;5030591;28;20079;-72
2023/12/29 13:38:05;;;;;;;1.35;1.00;;;;;;;;;;5030906;28;20056;-70
2023/12/29 13:41:10;;;;;;;2.63;0.90;;;;;;;;;;5030997;28;20384;-69
2023/12/29 13:43:42;;;;;;;2.50;0.93;;;;;;;;;;5044683;28;20028;-69
2023/12/29 13:46:11;;;;;;;2.20;1.30;;;;;;;;;;5031384;28;20049;-72
2023/12/29 13:48:37;;;;;;;1.95;0.75;;;;;;;;;;5035519;28;20480;-70
2023/12/29 13:51:03;;;;;;;1.40;1.00;;;;;;;;;;5048907;28;20037;-70
2023/12/29 13:53:30;;;;;;;0.68;0.60;;;;;;;;;;5030799;28;20040;-73
2023/12/29 13:56:06;;;;;;;1.58;1.08;;;;;;;;;;5049147;28;20020;-73
2023/12/29 13:58:32;;;;;;;1.55;1.02;;;;;;;;;;5017676;28;20048;-68
2023/12/29 14:01:00;;;;;;;0.98;0.70;;;;;;;;;;5011168;28;20513;-70
2023/12/29 14:03:40;;;;;;;1.92;0.88;;;;;;;;;;4978275;28;20048;-71
2023/12/29 14:06:14;;;;;;;0.70;0.70;;;;;;;;;;5028753;28;20045;-71
2023/12/29 14:08:49;;;;;;;0.95;0.75;;;;;;;;;;5028674;28;20521;-71
2023/12/29 14:11:16;;;;;;;0.88;0.85;;;;;;;;;;5010410;28;20044;-71
2023/12/29 14:13:45;;;;;;;1.88;1.10;;;;;;;;;;5029150;28;20469;-72
2023/12/29 14:16:12;;;;;;;1.65;1.20;;;;;;;;;;5031192;28;20083;-68
2023/12/29 14:18:46;;;;;;;1.30;0.88;;;;;;;;;;5032642;28;20036;-69
2023/12/29 14:21:27;;;;;;;1.60;1.30;;;;;;;;;;5031543;28;20503;-71
2023/12/29 14:24:10;;;;;;;1.52;1.00;;;;;;;;;;5031218;28;20029;-70
2023/12/29 14:26:41;;;;;;;1.92;0.80;;;;;;;;;;5032493;28;20021;-71
2023/12/29 14:29:12;;;;;;;1.80;1.17;;;;;;;;;;5014406;28;20056;-72
2023/12/29 14:31:39;;;;;;;1.33;1.20;;;;;;;;;;5032148;28;20095;-71
2023/12/29 14:34:05;;;;;;;2.03;1.00;;;;;;;;;;5014486;28;20025;-70
2023/12/29 14:36:33;;;;;;;2.45;1.00;;;;;;;;;;5014772;28;20041;-70
2023/12/29 14:39:00;;;;;;;2.67;1.20;;;;;;;;;;5014171;28;20045;-70
2023/12/29 14:41:26;;;;;;;2.97;1.00;;;;;;;;;;5031705;28;20052;-70
2023/12/29 14:43:52;;;;;;;1.60;1.00;;;;;;;;;;5031199;28;20029;-70
2023/12/29 14:46:18;;;;;;;1.33;1.00;;;;;;;;;;5031905;28;20022;-67
2023/12/29 14:48:43;;;;;;;2.25;1.13;;;;;;;;;;5032015;28;20028;-71